CheckWX is a tool to help pilots better visualize weather data.  It is not intended as a substitute for an official pre-flight weather briefing.

18:51:41 UTC

KANQ METAR
Tri-State Steuben County Airport
Angola, Indiana, USA
Current

17 mins ago

KANQ 261835Z AUTO 00000G10KT 10SM CLR 05/M14 A3043 RMK AO2
Observed
Mar-26 @ 18:35 UTC
Visibility
10 SM
Flight Rules
VFR
Cloud Levels
  • Clear skies
Temperature
C / 41°F
Dewpoint
-14°C / 7°F
Humidity
24%
Altimeter
30.43" Hg
Pressure
1030.51 hPa
Previous

37 mins ago

KANQ 261815Z AUTO 33004KT 10SM CLR 05/M13 A3043 RMK AO2
Observed
Mar-26 @ 18:15 UTC
Wind
  • 330° at 4 KTS
Visibility
10 SM
Flight Rules
VFR
Cloud Levels
  • Clear skies
Temperature
C / 41°F
Dewpoint
-13°C / 9°F
Humidity
26%
Altimeter
30.43" Hg
Pressure
1030.51 hPa
Previous

57 mins ago

KANQ 261755Z AUTO VRB06KT 10SM CLR 04/M13 A3044 RMK AO2
Observed
Mar-26 @ 17:55 UTC
Wind
  • Variable at 6 KTS
Visibility
10 SM
Flight Rules
VFR
Cloud Levels
  • Clear skies
Temperature
C / 39°F
Dewpoint
-13°C / 9°F
Humidity
28%
Altimeter
30.44" Hg
Pressure
1030.81 hPa